^^
Datos históricos de la estación: Murcia-Puente Tocinos
Diario Informe para Septiembre 13, 2019 Unidades:  Ingés    Métrico   Ambas
Diario Semanal Mensual Anual
  Máxima: Mínima: Promedio:
Temperatura: 82.8 °F 68 °F 73.8 °F
Punto de rocio: 68.9 °F 61.9 °F 66.2 °F
Humedad: 91% 49.9% 79%
Velocidad viento: 10mph 0mph 3.9mph
Racha viento: 19mph - -
Viento- - SSE
Presión: 30 in 29.9 in -
Precipitación: 0 in    
 
 
Tabla de datos para Septiembre 13, 2019
Hora Temperatura Punto de rocio Presión Viento Velocidad viento Racha viento Humedad Intensidad lluvia(por hora) Nubes
00:04 72 °F 68.9 °F 30 in NE 2.4 mph 4 mph 90% 0 in
00:09 72 °F 68.9 °F 30 in NNO 2.3 mph 4.6 mph 90% 0 in
00:14 72 °F 68.7 °F 30 in NO 1.8 mph 5 mph 90% 0 in
00:19 71.8 °F 68.7 °F 30 in NO 1.9 mph 3.6 mph 90% 0 in
00:24 71.8 °F 68.7 °F 30 in NO 2 mph 4.6 mph 90% 0 in
00:29 71.8 °F 68.7 °F 30 in NNO 2 mph 5.2 mph 90% 0 in
00:34 71.8 °F 68.7 °F 30 in NNO 1.8 mph 5 mph 90% 0 in
00:39 71.8 °F 68.7 °F 30 in NNE 1.9 mph 5.8 mph 90% 0 in
00:44 71.8 °F 68.5 °F 30 in NE 2.4 mph 6.9 mph 89.6% 0 in
00:49 72 °F 68.5 °F 30 in NE 2.7 mph 7 mph 89% 0 in
00:54 72 °F 68.5 °F 30 in NE 4 mph 6.2 mph 89% 0 in
00:59 72 °F 68.5 °F 30 in NE 3.9 mph 6 mph 89% 0 in
01:04 72 °F 68.5 °F 30 in NNE 3.6 mph 6 mph 89% 0 in
01:09 71.8 °F 68.4 °F 30 in NNE 3.6 mph 6 mph 89% 0 in
01:14 71.8 °F 68.4 °F 30 in NNE 3.6 mph 6 mph 89% 0 in
01:19 71.8 °F 68.4 °F 30 in NNE 3.5 mph 6 mph 89% 0 in
01:24 71.6 °F 68.2 °F 30 in NNE 2.9 mph 4 mph 89% 0 in
01:29 71.4 °F 68 °F 30 in NO 2.7 mph 4.7 mph 89% 0 in
01:34 71.4 °F 68 °F 30 in NO 1.8 mph 5 mph 89% 0 in
01:39 71.2 °F 67.8 °F 30 in ONO 1.9 mph 5 mph 89% 0 in
01:44 71.2 °F 67.8 °F 30 in ONO 2.4 mph 5 mph 89% 0 in
01:49 71.1 °F 67.6 °F 30 in Oeste 2.3 mph 5 mph 89% 0 in
01:54 71.1 °F 67.6 °F 30 in Oeste 2 mph 2.4 mph 89% 0 in
01:59 71.1 °F 67.5 °F 30 in NO 1.9 mph 3.6 mph 88.3% 0 in
02:04 71.1 °F 67.3 °F 30 in NO 1.4 mph 4 mph 88% 0 in
02:09 71.1 °F 67.3 °F 30 in NO 1.4 mph 3 mph 88% 0 in
02:14 71.1 °F 67.3 °F 30 in NO 1.4 mph 3 mph 88% 0 in
02:19 71.1 °F 67.3 °F 30 in NO 1.1 mph   88% 0 in
02:24 71.1 °F 67.3 °F 30 in Calm     88% 0 in
02:29 71.1 °F 67.3 °F 30 in Calm     88% 0 in
02:34 71.1 °F 67.3 °F 30 in Calm     88% 0 in
02:39 71.1 °F 67.5 °F 30 in Calm     88.5% 0 in
02:44 71.2 °F 67.8 °F 30 in Calm     88.8% 0 in
02:49 71.4 °F 67.8 °F 30 in Calm     88.8% 0 in
02:54 71.4 °F 68 °F 30 in Calm     89% 0 in
02:59 71.4 °F 67.8 °F 30 in Calm     88.3% 0 in
03:04 71.4 °F 67.6 °F 30 in Calm   3.6 mph 88% 0 in
03:09 71.4 °F 67.8 °F 30 in ESE 0.4 mph 4 mph 88.5% 0 in
03:14 71.4 °F 68 °F 30 in ESE 1.8 mph 4 mph 89% 0 in
03:19 71.2 °F 67.8 °F 30 in ESE 1.8 mph 3 mph 89% 0 in
03:24 71.2 °F 67.8 °F 30 in ESE 1.8 mph 3 mph 89% 0 in
03:29 71.2 °F 67.8 °F 30 in ESE 1.4 mph 3 mph 89% 0 in
03:34 71.2 °F 67.8 °F 30 in Calm   2.4 mph 89% 0 in
03:39 71.2 °F 67.8 °F 30 in Calm   3.1 mph 89% 0 in
03:44 71.1 °F 67.6 °F 30 in Calm   3.5 mph 89% 0 in
03:49 71.1 °F 67.6 °F 30 in ESE 0.4 mph 3 mph 89% 0 in
03:54 71.1 °F 67.6 °F 30 in ESE 1.8 mph 2.4 mph 89% 0 in
03:59 70.9 °F 67.5 °F 30 in ESE 1.7 mph 2.9 mph 89% 0 in
04:04 70.9 °F 67.5 °F 30 in Este 1.4 mph 4.6 mph 89% 0 in
04:09 70.5 °F 67.1 °F 30 in NO 1.5 mph 5 mph 89% 0 in
04:14 70.5 °F 67.1 °F 30 in NO 2 mph 5 mph 89% 0 in
04:19 70.3 °F 67.3 °F 30 in NO 1.6 mph   90% 0 in
04:24 70.3 °F 67.3 °F 30 in Calm     90% 0 in
04:29 70.3 °F 67.3 °F 30 in Calm   2.4 mph 90% 0 in
04:34 70.2 °F 67.1 °F 30 in Calm   4.6 mph 90% 0 in
04:39 70 °F 66.9 °F 30 in NO 0.4 mph 5 mph 90% 0 in
04:44 70 °F 66.9 °F 30 in NO 2 mph 3 mph 90% 0 in
04:49 70 °F 66.9 °F 30 in NO 1.9 mph 3.5 mph 90% 0 in
04:54 69.8 °F 66.7 °F 30 in NO 1.4 mph 3 mph 90% 0 in
04:59 69.8 °F 66.7 °F 30 in NO 1.1 mph 2 mph 90.4% 0 in
05:04 69.6 °F 66.9 °F 30 in Calm   2.4 mph 91% 0 in
05:09 69.6 °F 66.7 °F 30 in ONO 0.3 mph 3.5 mph 90.7% 0 in
05:14 69.4 °F 66.4 °F 30 in ONO 1.4 mph 3.6 mph 90% 0 in
05:19 69.4 °F 66.4 °F 30 in ONO 1.5 mph 4 mph 90% 0 in
05:24 69.3 °F 66.4 °F 29.9 in ONO 2 mph 3.5 mph 90.8% 0 in
05:29 69.3 °F 66.6 °F 29.9 in ONO 2 mph 3.5 mph 91% 0 in
05:34 69.3 °F 66.6 °F 30 in ONO 2 mph 3.5 mph 91% 0 in
05:39 69.3 °F 66.4 °F 30 in ONO 1.9 mph 3.5 mph 91% 0 in
05:44 69.1 °F 66.4 °F 30 in ONO 1.8 mph 2 mph 91% 0 in
05:49 69.1 °F 66.4 °F 30 in ONO 1.4 mph   91% 0 in
05:54 69.1 °F 66.4 °F 30 in Calm   2.9 mph 91% 0 in
05:59 69.3 °F 66.6 °F 30 in SO 0.4 mph 3.6 mph 91% 0 in
06:04 69.3 °F 66.6 °F 30 in SSO 1.8 mph 4 mph 91% 0 in
06:09 69.3 °F 66.6 °F 30 in SSO 1.9 mph 4.6 mph 91% 0 in
06:14 69.3 °F 66.6 °F 30 in SSO 2.4 mph 5 mph 91% 0 in
06:19 69.1 °F 66.4 °F 30 in SSO 2.3 mph 5 mph 91% 0 in
06:24 69.1 °F 66.4 °F 30 in SSO 2 mph 3.5 mph 91% 0 in
06:29 69.1 °F 66.2 °F 30 in SSO 2 mph 4.6 mph 91% 0 in
06:34 69.1 °F 66.2 °F 30 in SSO 1.8 mph 5 mph 91% 0 in
06:39 68.9 °F 66.2 °F 30 in SSO 1.8 mph 5 mph 91% 0 in
06:44 68.9 °F 66.2 °F 30 in SSO 1.8 mph 3 mph 91% 0 in
06:49 68.9 °F 66.2 °F 30 in SSO 1.7 mph 3.6 mph 91% 0 in
06:54 68.7 °F 66 °F 30 in SSO 1.4 mph 4 mph 91% 0 in
06:59 68.7 °F 65.8 °F 30 in SO 1.6 mph 5 mph 90.2% 0 in
07:04 68.5 °F 65.3 °F 30 in OSO 2 mph 5.4 mph 89.3% 0 in
07:09 68.4 °F 65.1 °F 30 in OSO 2.1 mph 5 mph 89% 0 in
07:14 68.4 °F 64.9 °F 30 in OSO 2.4 mph 5 mph 89% 0 in
07:19 68.5 °F 65.1 °F 30 in OSO 2.4 mph 5 mph 89% 0 in
07:24 68.4 °F 64.8 °F 30 in SO 2.4 mph 5.9 mph 88.3% 0 in
07:29 68.4 °F 64.8 °F 30 in SO 2.7 mph 6.2 mph 88% 0 in
07:34 68.4 °F 64.6 °F 30 in SO 3.6 mph 6 mph 87.8% 0 in
07:39 68.2 °F 64.2 °F 30 in SO 3.5 mph 6 mph 87% 0 in
07:44 68.2 °F 64.2 °F 30 in SO 3.1 mph 5.8 mph 87% 0 in
07:49 68.2 °F 64.2 °F 30 in SO 3.1 mph 6 mph 87% 0 in
07:54 68.2 °F 64.2 °F 30 in SO 3.1 mph 5 mph 87% 0 in
07:59 68.2 °F 64.2 °F 30 in SO 3.1 mph 5.2 mph 87% 0 in
08:04 68.2 °F 64 °F 30 in SO 3.1 mph 5 mph 87% 0 in
08:09 68 °F 63.9 °F 30 in OSO 3.1 mph 5 mph 86.3% 0 in
08:14 68 °F 63.7 °F 30 in OSO 3.1 mph 5 mph 86% 0 in
08:19 68 °F 63.7 °F 30 in SO 3 mph 5 mph 86% 0 in
08:24 68.2 °F 63.7 °F 30 in SO 2.9 mph 5.2 mph 86% 0 in
08:29 68.2 °F 63.9 °F 30 in SO 2.9 mph 5.9 mph 86% 0 in
08:34 68.2 °F 63.9 °F 30 in OSO 3.1 mph 6 mph 86% 0 in
08:39 68.4 °F 64 °F 30 in OSO 3.1 mph 5 mph 86% 0 in
08:44 68.4 °F 64 °F 30 in OSO 3.1 mph 5 mph 86% 0 in
08:49 68.4 °F 64 °F 30 in OSO 2.9 mph 4 mph 86% 0 in
08:54 68.4 °F 63.9 °F 30 in OSO 2 mph 4 mph 86% 0 in
08:59 68.4 °F 63.9 °F 30 in OSO 2.1 mph 5.2 mph 86% 0 in
09:04 68.4 °F 64 °F 30 in OSO 2.4 mph 5.9 mph 86% 0 in
09:09 68.4 °F 64 °F 30 in OSO 2.5 mph 6 mph 86% 0 in
09:14 68.4 °F 64 °F 30 in SO 3.1 mph 5 mph 86% 0 in
09:19 68.5 °F 64.4 °F 30 in SO 2.9 mph 5 mph 86.7% 0 in
09:24 68.9 °F 64.9 °F 30 in SSO 2 mph 2.9 mph 86.9% 0 in
09:29 69.4 °F 65.1 °F 30 in SSO 1.9 mph 4 mph 85.6% 0 in
09:34 70 °F 65.1 °F 30 in Sur 1.4 mph 5 mph 84.2% 0 in
09:39 70.3 °F 65.1 °F 30 in Sur 1.5 mph 4 mph 83.5% 0 in
09:44 70.5 °F 65.1 °F 30 in Sur 1.8 mph 4.6 mph 83% 0 in
09:49 70.9 °F 65.1 °F 30 in SSO 1.9 mph 5 mph 82.2% 0 in
09:54 70.7 °F 64.9 °F 30 in SSO 2 mph 5 mph 82% 0 in
09:59 70.5 °F 64.8 °F 30 in SSO 2.3 mph 5.9 mph 82% 0 in
10:04 70.5 °F 64.9 °F 30 in SSO 3.1 mph 6.9 mph 82.5% 0 in
10:09 70.7 °F 64.9 °F 30 in SO 3.2 mph 7.4 mph 82% 0 in
10:14 70.9 °F 64.9 °F 30 in OSO 3.6 mph 7.4 mph 81.8% 0 in
10:19 70.7 °F 64.9 °F 30 in SO 3.9 mph 8.1 mph 81.8% 0 in
10:24 70.9 °F 64.9 °F 30 in OSO 4.7 mph 8.1 mph 81.9% 0 in
10:29 70.9 °F 65.1 °F 30 in SO 4.7 mph 8 mph 81.8% 0 in
10:34 71.1 °F 65.3 °F 30 in SO 4.7 mph 7 mph 82% 0 in
10:39 71.2 °F 65.1 °F 30 in Oeste 4.4 mph 6.4 mph 81.1% 0 in
10:44 71.4 °F 65.3 °F 30 in OSO 3.1 mph 7 mph 81% 0 in
10:49 71.6 °F 65.5 °F 30 in Oeste 3.1 mph 7 mph 80.9% 0 in
10:54 72 °F 65.5 °F 30 in OSO 3.1 mph 6.2 mph 80% 0 in
10:59 72.1 °F 65.5 °F 30 in OSO 3.1 mph 6.2 mph 79.5% 0 in
11:04 72.3 °F 65.5 °F 30 in SSO 3.1 mph 6 mph 79% 0 in
11:09 72.9 °F 65.7 °F 30 in SSO 3.1 mph 5.9 mph 78.5% 0 in
11:14 73 °F 65.7 °F 30 in SSO 3.1 mph 6 mph 77.8% 0 in
11:19 73.2 °F 65.7 °F 30 in SSO 3.2 mph 6.4 mph 77.1% 0 in
11:24 73.4 °F 65.7 °F 30 in SSO 3.6 mph 6.9 mph 77% 0 in
11:29 73.6 °F 65.7 °F 30 in SO 3.9 mph 8.1 mph 76.4% 0 in
11:34 73.6 °F 65.7 °F 30 in SO 4.7 mph 8 mph 76.3% 0 in
11:39 73.8 °F 65.8 °F 30 in Sur 4.4 mph 6 mph 76% 0 in
11:44 74.5 °F 66 °F 30 in Sur 3.1 mph 5.4 mph 75.1% 0 in
11:49 74.8 °F 65.7 °F 30 in SO 3.1 mph 7.4 mph 73.2% 0 in
11:54 75 °F 65.8 °F 30 in ONO 3.1 mph 7 mph 72.9% 0 in
11:59 75.6 °F 65.8 °F 30 in SSO 2.8 mph 5 mph 72.2% 0 in
12:04 76.1 °F 65.8 °F 30 in Sur 2 mph 5 mph 70.5% 0 in
12:09 76.6 °F 65.8 °F 30 in SE 2 mph 5 mph 69.5% 0 in
12:14 77.2 °F 65.7 °F 30 in Oeste 1.8 mph 5.2 mph 67.7% 0 in
12:19 77.4 °F 65.5 °F 30 in Oeste 1.9 mph 5 mph 67% 0 in
12:24 77.2 °F 65.3 °F 30 in ONO 2.4 mph 5 mph 67% 0 in
12:29 77.2 °F 65.5 °F 30 in North 2.3 mph 5.9 mph 67.5% 0 in
12:34 77.5 °F 65.7 °F 30 in North 2 mph 6 mph 67% 0 in
12:39 77.5 °F 65.5 °F 30 in NNO 2.2 mph 6 mph 66.3% 0 in
12:44 77.5 °F 65.3 °F 30 in ONO 3.1 mph 6.9 mph 66% 0 in
12:49 77.5 °F 65.1 °F 30 in NE 3.1 mph 7 mph 65.6% 0 in
12:54 78.1 °F 65.1 °F 30 in ESE 3.1 mph 5 mph 64.8% 0 in
12:59 78.3 °F 65.1 °F 30 in NNO 2.9 mph 5 mph 64% 0 in
13:04 78.4 °F 65.1 °F 30 in North 2.4 mph 7.4 mph 63.9% 0 in
13:09 78.6 °F 65.3 °F 30 in ENE 2.5 mph 7 mph 64% 0 in
13:14 79.2 °F 65.5 °F 30 in NNE 3.1 mph 8.5 mph 63.3% 0 in
13:19 79.2 °F 65.3 °F 30 in NE 3.2 mph 9 mph 62.5% 0 in
13:24 79 °F 64.9 °F 30 in ENE 3.6 mph 8.5 mph 62.3% 0 in
13:29 79.2 °F 65.5 °F 30 in NE 3.7 mph 9 mph 63% 0 in
13:34 79.3 °F 65.1 °F 30 in NE 4.3 mph 10.4 mph 62.2% 0 in
13:39 79.3 °F 64.8 °F 30 in NNE 4.4 mph 10 mph 61.1% 0 in
13:44 79.5 °F 64.9 °F 30 in NE 4.7 mph 7 mph 61% 0 in
13:49 80.1 °F 64.8 °F 30 in NE 4.7 mph 9.7 mph 60% 0 in
13:54 80.1 °F 64.8 °F 30 in ENE 4.7 mph 10 mph 59.5% 0 in
13:59 80.2 °F 64.9 °F 30 in NE 4.7 mph 9.2 mph 59.5% 0 in
14:04 80.8 °F 64.9 °F 30 in ENE 4.7 mph 9 mph 58.8% 0 in
14:09 80.8 °F 64.9 °F 30 in NNE 4.6 mph 9 mph 59% 0 in
14:14 81 °F 64.8 °F 30 in ENE 4.3 mph 9.7 mph 58.2% 0 in
14:19 81.3 °F 63.3 °F 30 in ESE 4.3 mph 10.4 mph 54.4% 0 in
14:24 81.3 °F 62.6 °F 30 in ENE 4.7 mph 10.4 mph 53% 0 in
14:29 81.7 °F 62.8 °F 30 in ENE 4.8 mph 10 mph 52.8% 0 in
14:34 82 °F 62.6 °F 30 in ESE 5.2 mph 11.5 mph 51.7% 0 in
14:39 82.2 °F 62.2 °F 30 in ESE 5.2 mph 12 mph 51.1% 0 in
14:44 82.4 °F 62.2 °F 30 in SE 5.4 mph 11.2 mph 50.8% 0 in
14:49 82.2 °F 61.9 °F 30 in ESE 5.6 mph 15 mph 50% 0 in
14:54 82.4 °F 62.1 °F 29.9 in ESE 6.2 mph 15 mph 50.4% 0 in
14:59 82.4 °F 61.9 °F 29.9 in ESE 6.5 mph 13 mph 50.1% 0 in
15:04 82.6 °F 62.1 °F 29.9 in SSE 7.4 mph 13.5 mph 50% 0 in
15:09 82.6 °F 62.1 °F 29.9 in Este 7.2 mph 14 mph 50% 0 in
15:14 82.8 °F 62.1 °F 29.9 in ESE 6.4 mph 14 mph 49.9% 0 in
15:19 82.4 °F 61.9 °F 29.9 in Este 6.6 mph 14 mph 50% 0 in
15:24 82.4 °F 62.2 °F 29.9 in ESE 7.6 mph 13 mph 50.8% 0 in
15:29 82.8 °F 62.6 °F 29.9 in SE 7.6 mph 13.8 mph 51% 0 in
15:34 82.8 °F 62.8 °F 29.9 in ESE 7.4 mph 14 mph 50.8% 0 in
15:39 82.8 °F 63.3 °F 29.9 in Este 7.1 mph 10.7 mph 52.1% 0 in
15:44 82.6 °F 63.5 °F 29.9 in ESE 5.9 mph 13.8 mph 52.5% 0 in
15:49 82.4 °F 63.1 °F 29.9 in ESE 6.2 mph 14 mph 52.4% 0 in
15:54 82.4 °F 63.7 °F 29.9 in ESE 7.6 mph 10 mph 53% 0 in
15:59 82.6 °F 64 °F 29.9 in ESE 7 mph 11.5 mph 53.5% 0 in
16:04 82.2 °F 63.9 °F 29.9 in ESE 5.4 mph 12 mph 53.9% 0 in
16:09 82.6 °F 64 °F 29.9 in ESE 5.8 mph 12.7 mph 53.8% 0 in
16:14 82.2 °F 64 °F 29.9 in ESE 7.6 mph 13 mph 54.5% 0 in
16:19 82.4 °F 64.6 °F 29.9 in ESE 7.3 mph 12 mph 54.8% 0 in
16:24 82.6 °F 64.4 °F 29.9 in SE 6.4 mph 12.3 mph 54.3% 0 in
16:29 82.8 °F 64.6 °F 29.9 in ESE 6.6 mph 13 mph 54.3% 0 in
16:34 82.8 °F 64.8 °F 29.9 in SE 7.4 mph 13.5 mph 54.6% 0 in
16:39 82.8 °F 64.6 °F 29.9 in SE 7.6 mph 14.5 mph 54.5% 0 in
16:44 82.4 °F 64.9 °F 29.9 in SE 8.5 mph 15 mph 55.5% 0 in
16:49 82.4 °F 65.3 °F 29.9 in ESE 8.4 mph 15.2 mph 56.3% 0 in
16:54 82 °F 65.7 °F 29.9 in ESE 8.1 mph 18.1 mph 57.6% 0 in
16:59 81.9 °F 65.8 °F 29.9 in ESE 8.5 mph 18 mph 58.5% 0 in
17:04 81.9 °F 66.2 °F 29.9 in ESE 9.7 mph 15 mph 59.2% 0 in
17:09 81.7 °F 66.4 °F 29.9 in SE 9.5 mph 15.2 mph 60% 0 in
17:14 81.3 °F 66.4 °F 29.9 in ESE 8.7 mph 16.3 mph 60.5% 0 in
17:19 81.1 °F 66.6 °F 29.9 in ESE 9 mph 17.3 mph 61.5% 0 in
17:24 80.8 °F 66.7 °F 29.9 in ESE 10 mph 17.3 mph 62.5% 0 in
17:29 80.6 °F 66.7 °F 29.9 in ESE 10 mph 16 mph 63% 0 in
17:34 80.4 °F 67.1 °F 29.9 in ESE 10 mph 16.1 mph 63.7% 0 in
17:39 80.2 °F 67.1 °F 29.9 in ESE 9.9 mph 16 mph 64.2% 0 in
17:44 80.2 °F 67.3 °F 29.9 in ESE 9.7 mph 18.4 mph 65% 0 in
17:49 80.2 °F 67.3 °F 29.9 in ESE 9.5 mph 18 mph 65% 0 in
17:54 80.2 °F 67.5 °F 29.9 in ESE 8.7 mph 15 mph 65.1% 0 in
17:59 80.1 °F 67.6 °F 29.9 in ESE 8.7 mph 15 mph 66% 0 in
18:04 79.7 °F 67.6 °F 29.9 in ESE 8.7 mph 15 mph 66.8% 0 in
18:09 79.3 °F 67.8 °F 29.9 in ESE 8.8 mph 15 mph 67.6% 0 in
18:14 79.3 °F 67.8 °F 29.9 in ESE 9.2 mph 15 mph 68% 0 in
18:19 79.2 °F 67.6 °F 29.9 in ESE 8.9 mph 15 mph 68% 0 in
18:24 79 °F 67.8 °F 29.9 in ESE 8.1 mph 17.3 mph 68.9% 0 in
18:29 78.6 °F 67.8 °F 29.9 in ESE 8.3 mph 17 mph 69.4% 0 in
18:34 78.4 °F 67.8 °F 29.9 in ESE 9.2 mph 15 mph 70% 0 in
18:39 78.3 °F 67.8 °F 29.9 in ESE 8.6 mph 15 mph 70% 0 in
18:44 78.3 °F 67.6 °F 29.9 in ESE 6.4 mph 19 mph 70.2% 0 in
18:49 77.7 °F 67.6 °F 29.9 in ESE 6.8 mph 19 mph 71% 0 in
18:54 77.5 °F 67.8 °F 29.9 in ESE 8.5 mph 14 mph 72% 0 in
18:59 77.4 °F 67.6 °F 29.9 in ESE 8.1 mph 14 mph 72% 0 in
19:04 77.4 °F 67.8 °F 29.9 in ESE 6.9 mph 12 mph 72.7% 0 in
19:09 77.2 °F 67.8 °F 29.9 in ESE 7 mph 14 mph 73% 0 in
19:14 76.8 °F 67.6 °F 29.9 in ESE 7.6 mph 14 mph 73.2% 0 in
19:19 76.6 °F 67.8 °F 29.9 in ESE 7.5 mph 13 mph 74% 0 in
19:24 76.5 °F 67.6 °F 29.9 in Este 6.9 mph 12 mph 74.1% 0 in
19:29 76.5 °F 67.8 °F 29.9 in Este 6.8 mph 12 mph 75% 0 in
19:34 76.3 °F 67.8 °F 29.9 in ENE 6.2 mph 12 mph 75% 0 in
19:39 76.1 °F 67.6 °F 29.9 in NE 5.6 mph 7 mph 75% 0 in
19:44 75.9 °F 67.6 °F 29.9 in NE 3.6 mph 8.1 mph 75.5% 0 in
19:49 75.7 °F 67.6 °F 29.9 in NE 3.9 mph 8.1 mph 76% 0 in
19:54 75.7 °F 67.6 °F 29.9 in NE 4.7 mph 8 mph 76% 0 in
19:59 75.6 °F 67.5 °F 29.9 in NE 4.3 mph 6 mph 76% 0 in
20:04 75.4 °F 67.6 °F 29.9 in NE 3.1 mph 5.2 mph 76.8% 0 in
20:09 75.2 °F 67.6 °F 29.9 in NE 3.2 mph 6.9 mph 77.2% 0 in
20:14 74.8 °F 67.6 °F 29.9 in NE 3.6 mph 8.5 mph 78.2% 0 in
20:19 74.5 °F 67.6 °F 30 in NE 3.9 mph 9 mph 79.4% 0 in
20:24 74.1 °F 67.6 °F 30 in NE 5.2 mph 9.2 mph 80% 0 in
20:29 73.9 °F 67.8 °F 30 in NE 5.2 mph 9 mph 80.9% 0 in
20:34 73.9 °F 67.8 °F 30 in NE 5.2 mph 7 mph 81% 0 in
20:39 73.8 °F 67.6 °F 30 in NE 5.2 mph 10.4 mph 81% 0 in
20:44 73.6 °F 67.6 °F 30 in NE 5.4 mph 10 mph 81.9% 0 in
20:49 73.2 °F 67.5 °F 30 in NE 5.5 mph 9.2 mph 82.1% 0 in
20:54 73 °F 67.6 °F 30 in NNE 5.9 mph 9 mph 83% 0 in
20:59 72.9 °F 67.5 °F 30 in NNE 5.7 mph 8.5 mph 83% 0 in
21:04 72.9 °F 67.6 °F 30 in NNE 5.2 mph 9 mph 83.7% 0 in
21:09 72.7 °F 67.6 °F 30 in NNE 5.2 mph 9.2 mph 84% 0 in
21:14 72.3 °F 67.5 °F 30 in NNE 5.2 mph 9 mph 84.4% 0 in
21:19 72.3 °F 67.6 °F 30 in NNE 5.2 mph 9.2 mph 85% 0 in
21:24 72.1 °F 67.5 °F 30 in NNE 5.2 mph 9 mph 85% 0 in
21:29 72.1 °F 67.6 °F 30 in NNE 5.1 mph 8.1 mph 85.6% 0 in
21:34 72 °F 67.5 °F 30 in NNE 4.7 mph 8.1 mph 86% 0 in
21:39 72 °F 67.5 °F 30 in NE 4.8 mph 8.5 mph 86.2% 0 in
21:44 71.8 °F 67.6 °F 30 in NE 5.4 mph 9 mph 87% 0 in
21:49 71.8 °F 67.6 °F 30 in NNE 5.3 mph 9.2 mph 87% 0 in
21:54 71.6 °F 67.5 °F 30 in NE 5.2 mph 9 mph 87.2% 0 in
21:59 71.4 °F 67.6 °F 30 in NE 5 mph 8 mph 88% 0 in
22:04 71.4 °F 67.6 °F 30 in NE 4.3 mph 6.9 mph 88% 0 in
22:09 71.4 °F 67.6 °F 30 in NE 4.3 mph 7 mph 88% 0 in
22:14 71.2 °F 67.6 °F 30 in NE 4.3 mph 7 mph 88% 0 in
22:19 71.2 °F 67.6 °F 30 in NE 4.4 mph 8.5 mph 88.5% 0 in
22:24 71.2 °F 67.8 °F 30 in NE 4.7 mph 9 mph 89% 0 in
22:29 71.2 °F 67.8 °F 30 in NE 4.8 mph 8.5 mph 89% 0 in
22:34 71.1 °F 67.6 °F 30 in NE 5.2 mph 9 mph 89% 0 in
22:39 70.9 °F 67.5 °F 30 in NE 5.1 mph 7.4 mph 89% 0 in
22:44 70.5 °F 67.1 °F 30 in NE 4.7 mph 7.6 mph 89% 0 in
22:49 70.5 °F 67.3 °F 30 in NE 4.6 mph 8.1 mph 89.5% 0 in
22:54 70.3 °F 67.3 °F 30 in NE 4.3 mph 9.2 mph 90% 0 in
22:59 70.3 °F 67.3 °F 30 in NE 4.5 mph 9 mph 90% 0 in
23:04 70.3 °F 67.3 °F 30 in NE 5.2 mph 8 mph 90% 0 in
23:09 70.3 °F 67.3 °F 30 in NE 5.1 mph 7 mph 90% 0 in
23:14 70.3 °F 67.3 °F 30 in NE 4.7 mph 7 mph 90% 0 in
23:19 70.3 °F 67.3 °F 30 in NE 4.5 mph 7 mph 90% 0 in
23:24 70.3 °F 67.3 °F 30 in NE 4 mph 7 mph 90% 0 in
23:29 70.3 °F 67.3 °F 30 in ENE 3.9 mph 5.2 mph 90% 0 in
23:34 70.3 °F 67.3 °F 30 in NE 3.1 mph 5 mph 90% 0 in
23:39 70.3 °F 67.3 °F 30 in NE 3.1 mph 5 mph 90% 0 in
23:44 70.3 °F 67.3 °F 30 in NE 3.1 mph 5 mph 90% 0 in
23:49 70.2 °F 67.1 °F 30 in NE 3.1 mph 5 mph 90% 0 in
23:54 70.2 °F 67.1 °F 30 in ENE 3.1 mph 5.8 mph 90% 0 in
23:59 70.2 °F 67.1 °F 30 in NE 3.1 mph 6 mph 90% 0 in
Murcia-Puente Tocinos, España
Compliments of Weather Underground - 3 mb

La estación de MeteoMurcia.com, publica sus datos en los siguientes proyectos:

Weather Underground PWS IMURCIAP2 Meteoclimatic www.awekas.at

W3Counter
Web Analytics